Huvudsida
METAR-TAF:

METAR-TAF

Flygplatser :

Ronneby, Sverige

Ronneby Airport

latitud: 56-16N, longitud: 015-17E, höjd: 58 m

Aktuellt väderrapport

Denna rapport gjordes för 39 minuter sedan, klockan 02:50 UTC
Vind 4 kt från nordväst, varierande mellan väst/nordväst och nord
Temperatur -1°C
Fuktighet 100%
Tryck 997 hPa
Sikt 10 km eller mer

METAR: ESDF 190250Z AUTO 32004KT 290V350 9999 OVC045/// M01/M01 Q0997

Tid: 04:29 (03:29 UTC)

Väderprognos

Denna rapport gjordes för 6 timmar och 59 minuter sedan, klockan 20:30 UTC
Prognos gäller från 18 kl. 21 UTC till 18 kl. 23 UTC
Vind 6 kt från nord/nordväst
Sikt 10 km eller mer
Brutna moln på en höjd av 700 ft
Sannolikhet 30%
från 18 kl. 21 UTC till 18 kl. 23 UTC
Sikt: 0500 m
Spridda moln på en höjd av 3000 ft
dimbankar

TAF: ESDF 182030Z 1821/1823 34006KT 9999 BKN007 PROB30 1821/1823 0500 BCFG SCT030

Aktuella väderrapporter och prognoser från 4000 flygplatser (METAR- och TAF-rapporter).

De tillgängliga stationerna syns som gula och röda prickar på kartan.

För musen över prickarna för att se namnen på stationerna.

Klicka sedan för att få väderrapporter och prognoser.

För att ändra kartan: Klicka på de gröna knapparna med ett svart kors på för att zooma in; den gröna knappen med ett streck på för att zooma ut; eller på de gröna pilarna för angränsande kartor.


METAR-TAF: